Bow Island Climate, Alberta

Past 24 Hour Conditions

Date / Time
(MDT)
Conditions Temp
(°F)
Humidity
(%)
Dew Point
(°F)
Wind
(mph)
Pressure
(inches)
Visibility
(miles)
20 October 2014
18:00 N/A 72 21 30 SW 4 N/A N/A
17:00 N/A 79 16 29 WSW 6 N/A N/A
16:00 N/A 81   17 31 SSW 9 N/A N/A
15:00 N/A 81   14 27 WSW 12 N/A N/A
14:00 N/A 79 17 31 SW 13 N/A N/A
13:00 N/A 77 19 31 SW 13 gust 18 N/A N/A
12:00 N/A 73 24 34 SSW 13 N/A N/A
11:00 N/A 65 36 38 S 10 gust 17 N/A N/A
10:00 N/A 56 49 37 S 12 N/A N/A
9:00 N/A 48 59 34 S 14 N/A N/A
8:00 N/A 45 73 36 S 12 N/A N/A
7:00 N/A 43   76 37 SSE 10 N/A N/A
6:00 N/A 45 72 37 S 13 N/A N/A
5:00 N/A 46 73 37 S 11 N/A N/A
4:00 N/A 48 61 35 S 13 N/A N/A
3:00 N/A 48 60 34 S 11 N/A N/A
2:00 N/A 48 59 34 S 9 N/A N/A
1:00 N/A 48 62 36 S 13 N/A N/A
00:00 N/A 49 57 35 S 11 N/A N/A
19 October 2014
23:00 N/A 48 60 35 S 8 N/A N/A
22:00 N/A 51 55 35 S 8 N/A N/A
21:00 N/A 51 56 36 SSW 8 N/A N/A
20:00 N/A 55 51 38 SSE 13 N/A N/A
19:00 N/A 55 48 35 SSE 9 N/A N/A
18:00 N/A 66 34 37 SSE 8 N/A N/A
N/A Not available
↑ Highest temperature
↓ Lowest temperature

If you require additional historical weather information, please visit Climate Data Online.

Date modified: